Kalkaska, MI (49646)

4:04 PM EDT on March 30, 2015 (GMT -0400)
Kalkaska | | Change Station
CLOSE
Current Station
Personal Weather Station
Location: Kalkaska, MI
Elevation: 1030 ft
Nearby Weather Stations

Elev 1030 ft 44.74 °N, 85.18 °W | Updated 27 seconds ago

Mostly Cloudy
Mostly Cloudy
39.2 °F
Feels Like 31 °F
N
14.0
Wind Variable Wind from WNW
Gusts 17.0 mph

Today
High -- | Low -- °F
--% Chance of Precip.
Yesterday
High -- | Low -- °F
Precip. -- in
7:25 AM 8:05 PM
Waxing Gibbous, 82% visible
Pressure 29.91 in
Visibility 10.0 miles
Clouds Overcast 4200 ft
Windchill 31 °F
Dew Point 26 °F
Humidity 60%
Rainfall 0.04 in
Snow Depth Not available.
UV 2 out of 12
Pollen 5.20 out of 12
Air Quality Not available.
Flu Activity Not available.
METAR KGOV 301935Z AUTO 30016G22KT 10SM OVC042 04/M05 A2991 RMK AO2 T00411055

More Conditions Fewer Conditions

Pressure 29.91 in
Visibility 10.0 miles
Clouds Overcast 4200 ft
Windchill 31 °F
Dew Point 26 °F
Humidity 60%
Rainfall 0.04 in
Snow Depth Not available.
UV 2 out of 12
Pollen 5.20 out of 12
Air Quality Not available.
Flu Activity Not available.
METAR KGOV 301935Z AUTO 30016G22KT 10SM OVC042 04/M05 A2991 RMK AO2 T00411055

More Conditions Fewer Conditions

Nowcast | as of 4:00 PM EDT on March 30, 2015

At 5 PM...partly cloudy. Temperature 39. Northwest winds 9 mph. At 7 PM...partly cloudy. Temperature 38. Northwest winds 7 mph. At 9 PM...partly cloudy. Temperature 34. Light winds. At 11 PM...mostly cloudy. Chance of snow. Temperature 30. Light winds.

×

10-Day Weather Forecast

Almanac

Astronomy

Mar. 30, 2015 Rise Set
Actual Time
Civil Twilight
Nautical Twilight
Astronomical Twilight
Moon
Length of Visible Light
Length of Day
Tomorrow will be .
, % of the Moon is Illuminated

Today's Extremes

State Highs State Lows

Community

WunderPhotos

Upload Photos

1,809,578 photos uploaded!

WunderBlogs® & News

Nearby

Air Quality

  Air Quality AQ Index Pollutant
Not available.

Snow Depth

Station Depth Elevation

Earthquake Activity

City Distance Mag. Time & Date
Minimum magnitude displayed is 2.5.

Coastal Water Temperatures

Place Temperature

Stations

Nearby Weather Stations

Station Location Temp. Windchill Dew Point Humidity Wind Precip. Elev Updated Type